createdAt,value
2018-05-24T00:00:02.279Z,10.23
2018-05-24T00:02:30.118Z,10.53
2018-05-24T00:04:57.972Z,10.10
2018-05-24T00:07:27.321Z,10.23
2018-05-24T00:09:55.146Z,10.20
2018-05-24T00:12:22.996Z,9.47
2018-05-24T00:14:51.184Z,8.43
2018-05-24T00:17:18.793Z,8.13
2018-05-24T00:19:48.788Z,9.00
2018-05-24T00:22:16.580Z,10.40
2018-05-24T00:24:44.358Z,9.90
2018-05-24T00:27:14.590Z,9.53
2018-05-24T00:29:45.960Z,11.80
2018-05-24T00:32:13.717Z,9.80
2018-05-24T00:34:41.342Z,9.47
2018-05-24T00:37:10.672Z,8.60
2018-05-24T00:39:38.343Z,9.17
2018-05-24T00:42:06.181Z,9.00
2018-05-24T00:44:35.862Z,7.73
2018-05-24T00:47:03.603Z,7.53
2018-05-24T00:49:31.312Z,7.30
2018-05-24T00:52:01.364Z,8.07
2018-05-24T00:54:29.080Z,7.90
2018-05-24T00:56:57.546Z,7.60
2018-05-24T00:59:28.694Z,6.63
2018-05-24T01:01:56.506Z,7.87
2018-05-24T01:04:24.193Z,7.53
2018-05-24T01:06:53.380Z,7.87
2018-05-24T01:09:20.960Z,7.77
2018-05-24T01:11:48.720Z,8.40
2018-05-24T01:14:18.505Z,7.80
2018-05-24T01:16:46.676Z,7.47
2018-05-24T01:19:19.187Z,6.97
2018-05-24T01:21:49.851Z,7.53
2018-05-24T01:24:17.536Z,7.00
2018-05-24T01:26:45.165Z,7.50
2018-05-24T01:29:12.765Z,6.87
2018-05-24T01:31:40.330Z,6.87
2018-05-24T01:34:09.985Z,6.97
2018-05-24T01:36:49.405Z,7.13
2018-05-24T01:39:17.239Z,7.50
2018-05-24T01:41:47.373Z,6.70
2018-05-24T01:44:16.362Z,6.37
2018-05-24T01:46:44.013Z,7.30
2018-05-24T01:49:11.857Z,6.70
2018-05-24T01:51:41.409Z,6.27
2018-05-24T01:54:16.054Z,7.43
2018-05-24T01:56:44.736Z,9.30
2018-05-24T01:59:12.397Z,8.47
2018-05-24T02:01:40.047Z,9.30
2018-05-24T02:04:07.694Z,8.87
2018-05-24T02:06:35.284Z,8.23
2018-05-24T02:09:02.985Z,8.37
2018-05-24T02:11:30.675Z,9.27
2018-05-24T02:13:58.318Z,8.50
2018-05-24T02:16:25.956Z,8.37
2018-05-24T02:18:53.607Z,9.20
2018-05-24T02:21:21.394Z,9.77
2018-05-24T02:23:48.995Z,9.53
2018-05-24T02:26:16.796Z,10.50
2018-05-24T02:28:46.049Z,9.90
2018-05-24T02:31:17.988Z,11.60
2018-05-24T02:33:45.947Z,11.67
2018-05-24T02:36:13.728Z,10.70
2018-05-24T02:38:41.668Z,10.37
2018-05-24T02:41:09.422Z,11.10
2018-05-24T02:43:37.087Z,12.10
2018-05-24T02:46:04.807Z,11.53
2018-05-24T02:48:33.661Z,11.27
2018-05-24T02:51:01.355Z,10.77
2018-05-24T02:53:29.185Z,10.60
2018-05-24T02:55:56.916Z,11.00
2018-05-24T02:58:24.678Z,10.83
2018-05-24T03:00:52.324Z,11.13
2018-05-24T03:03:19.977Z,11.00
2018-05-24T03:05:48.779Z,11.37
2018-05-24T03:08:16.580Z,10.40
2018-05-24T03:10:44.273Z,10.07
2018-05-24T03:13:14.390Z,10.13
2018-05-24T03:15:42.971Z,9.70
2018-05-24T03:18:10.585Z,10.40
2018-05-24T03:20:38.406Z,11.97
2018-05-24T03:23:06.055Z,11.57
2018-05-24T03:25:35.292Z,11.83
2018-05-24T03:28:03.014Z,10.33
2018-05-24T03:30:30.946Z,10.93
2018-05-24T03:33:00.956Z,10.43
2018-05-24T03:35:29.216Z,10.80
2018-05-24T03:37:56.873Z,10.23
2018-05-24T03:40:26.549Z,10.43
2018-05-24T03:42:57.339Z,10.83
2018-05-24T03:45:27.401Z,10.77
2018-05-24T03:47:56.746Z,10.87
2018-05-24T03:50:27.884Z,9.83
2018-05-24T03:52:57.564Z,10.53
2018-05-24T03:55:25.196Z,10.53
2018-05-24T03:57:53.040Z,10.93
2018-05-24T04:00:32.391Z,10.20
2018-05-24T04:03:11.830Z,10.47
2018-05-24T04:05:43.353Z,11.43
2018-05-24T04:08:11.013Z,10.80
2018-05-24T04:10:38.770Z,11.33
2018-05-24T04:13:07.353Z,11.47
2018-05-24T04:15:38.876Z,11.40
2018-05-24T04:18:07.384Z,11.07
2018-05-24T04:20:35.039Z,11.70
2018-05-24T04:23:02.717Z,11.47
2018-05-24T04:25:30.400Z,11.13
2018-05-24T04:27:58.345Z,11.27
2018-05-24T04:30:26.154Z,12.07
2018-05-24T04:32:54.049Z,12.00
2018-05-24T04:35:21.711Z,11.90
2018-05-24T04:37:49.557Z,11.30
2018-05-24T04:40:22.685Z,11.37
2018-05-24T04:42:50.396Z,12.87
2018-05-24T04:45:18.824Z,12.10
2018-05-24T04:47:50.227Z,12.33
2018-05-24T04:50:18.845Z,12.93
2018-05-24T04:52:48.118Z,14.37
2018-05-24T04:55:19.628Z,13.23
2018-05-24T04:57:48.171Z,12.03
2018-05-24T05:00:15.801Z,13.37
2018-05-24T05:02:43.488Z,12.50
2018-05-24T05:05:11.197Z,12.90
2018-05-24T05:07:38.953Z,13.73
2018-05-24T05:10:06.817Z,13.80
2018-05-24T05:12:34.507Z,13.33
2018-05-24T05:15:02.289Z,13.13
2018-05-24T05:17:29.996Z,13.13
2018-05-24T05:19:57.658Z,13.60
2018-05-24T05:22:25.555Z,13.80
2018-05-24T05:24:53.187Z,13.67
2018-05-24T05:27:21.187Z,12.87
2018-05-24T05:29:48.766Z,13.93
2018-05-24T05:32:16.471Z,14.00
2018-05-24T05:34:44.826Z,14.30
2018-05-24T05:37:13.232Z,14.13
2018-05-24T05:39:40.997Z,13.53
2018-05-24T05:42:08.619Z,14.53
2018-05-24T05:44:36.200Z,15.57
2018-05-24T05:47:03.912Z,14.23
2018-05-24T05:49:34.872Z,14.10
2018-05-24T05:52:02.878Z,16.37
2018-05-24T05:54:30.528Z,16.20
2018-05-24T05:56:58.331Z,16.40
2018-05-24T05:59:26.240Z,15.80
2018-05-24T06:01:54.184Z,14.67
2018-05-24T06:04:22.051Z,14.10
2018-05-24T06:06:49.775Z,12.70
2018-05-24T06:09:17.625Z,12.93
2018-05-24T06:11:46.308Z,21.17
2018-05-24T06:14:14.719Z,13.80
2018-05-24T06:16:42.397Z,12.13
2018-05-24T06:19:11.138Z,13.70
2018-05-24T06:21:42.487Z,52.83
2018-05-24T06:24:10.808Z,16.30
2018-05-24T06:26:39.159Z,12.97
2018-05-24T06:29:08.794Z,13.90
2018-05-24T06:31:37.951Z,13.60
2018-05-24T06:34:07.903Z,13.93
2018-05-24T06:36:35.693Z,11.70
2018-05-24T06:39:03.569Z,12.10
2018-05-24T06:41:31.376Z,12.00
2018-05-24T06:43:59.208Z,11.13
2018-05-24T06:46:29.098Z,11.40
2018-05-24T06:49:01.278Z,11.67
2018-05-24T06:51:30.366Z,11.43
2018-05-24T06:53:59.513Z,10.87
2018-05-24T06:56:29.815Z,11.93
2018-05-24T06:58:58.072Z,11.47
2018-05-24T07:01:25.879Z,10.43
2018-05-24T07:03:53.417Z,10.37
2018-05-24T07:06:21.789Z,9.43
2018-05-24T07:08:49.471Z,9.10
2018-05-24T07:11:17.113Z,9.27
2018-05-24T07:13:44.717Z,10.03
2018-05-24T07:16:12.509Z,9.47
2018-05-24T07:18:40.412Z,8.33
2018-05-24T07:21:08.229Z,8.00
2018-05-24T07:23:36.326Z,7.37
2018-05-24T07:26:05.394Z,7.23
2018-05-24T07:28:33.115Z,7.30
2018-05-24T07:31:02.214Z,6.53
2018-05-24T07:33:30.014Z,6.70
2018-05-24T07:35:57.935Z,6.43
2018-05-24T07:38:26.372Z,6.77
2018-05-24T07:40:54.045Z,5.80
2018-05-24T07:43:22.004Z,6.20
2018-05-24T07:45:50.975Z,7.63
2018-05-24T07:48:19.957Z,6.63
2018-05-24T07:50:48.620Z,6.60
2018-05-24T07:53:16.837Z,6.40
2018-05-24T07:55:44.887Z,6.93
2018-05-24T07:58:13.120Z,6.23
2018-05-24T08:00:44.362Z,5.90
2018-05-24T08:03:12.433Z,6.67
2018-05-24T08:05:40.468Z,6.30
2018-05-24T08:08:09.276Z,6.50
2018-05-24T08:10:38.205Z,7.03
2018-05-24T08:13:06.952Z,6.80
2018-05-24T08:15:36.062Z,6.93
2018-05-24T08:18:05.052Z,7.20
2018-05-24T08:20:34.845Z,6.80
2018-05-24T08:23:03.168Z,6.23
2018-05-24T08:25:31.494Z,6.63
2018-05-24T08:28:00.511Z,6.40
2018-05-24T08:30:28.643Z,6.43
2018-05-24T08:32:58.251Z,6.67
2018-05-24T08:35:26.700Z,6.90
2018-05-24T08:37:55.084Z,6.50
2018-05-24T08:40:23.230Z,6.83
2018-05-24T08:42:51.592Z,7.50
2018-05-24T08:45:20.820Z,7.70
2018-05-24T08:47:49.561Z,7.13
2018-05-24T08:50:17.632Z,6.87
2018-05-24T08:52:46.014Z,7.17
2018-05-24T08:55:14.804Z,7.03
2018-05-24T08:57:42.970Z,6.77
2018-05-24T09:00:11.359Z,7.23
2018-05-24T09:02:39.358Z,6.73
2018-05-24T09:05:07.169Z,7.07
2018-05-24T09:07:35.155Z,6.23
2018-05-24T09:10:03.192Z,7.50
2018-05-24T09:12:32.051Z,7.40
2018-05-24T09:15:00.216Z,8.17
2018-05-24T09:17:28.532Z,7.27
2018-05-24T09:19:56.405Z,7.40
2018-05-24T09:22:24.199Z,8.10
2018-05-24T09:24:52.454Z,7.03
2018-05-24T09:27:21.319Z,7.30
2018-05-24T09:29:49.467Z,7.47
2018-05-24T09:32:18.677Z,7.80
2018-05-24T09:34:46.701Z,7.33
2018-05-24T09:37:14.484Z,8.73
2018-05-24T09:39:42.966Z,7.23
2018-05-24T09:42:12.277Z,8.07
2018-05-24T09:44:40.652Z,7.47
2018-05-24T09:47:08.473Z,8.70
2018-05-24T09:49:36.345Z,7.83
2018-05-24T09:52:04.471Z,7.83
2018-05-24T09:54:32.476Z,8.47
2018-05-24T09:57:00.643Z,7.80
2018-05-24T09:59:28.486Z,7.93
2018-05-24T10:01:56.599Z,7.23
2018-05-24T10:04:26.679Z,8.60
2018-05-24T10:06:54.619Z,7.90
2018-05-24T10:09:23.560Z,8.80
2018-05-24T10:11:51.549Z,8.57
2018-05-24T10:14:20.208Z,8.20
2018-05-24T10:16:51.124Z,8.70
2018-05-24T10:19:18.920Z,9.87
2018-05-24T10:21:47.141Z,6.90
2018-05-24T10:24:15.542Z,8.60
2018-05-24T10:26:43.748Z,8.47
2018-05-24T10:29:12.767Z,8.87
2018-05-24T10:31:41.036Z,8.30
2018-05-24T10:34:08.981Z,9.07
2018-05-24T10:36:37.044Z,9.03
2018-05-24T10:39:05.937Z,8.03
2018-05-24T10:41:34.537Z,8.43
2018-05-24T10:44:02.634Z,7.80
2018-05-24T10:46:30.555Z,8.47
2018-05-24T10:48:58.518Z,8.40
2018-05-24T10:51:26.305Z,8.40
2018-05-24T10:53:55.043Z,7.97
2018-05-24T10:56:24.512Z,8.43
2018-05-24T10:58:53.101Z,8.53
2018-05-24T11:01:20.769Z,8.57
2018-05-24T11:03:50.035Z,8.33
2018-05-24T11:06:18.364Z,8.80
2018-05-24T11:08:46.367Z,8.20
2018-05-24T11:11:14.818Z,13.77
2018-05-24T11:13:43.195Z,8.83
2018-05-24T11:16:11.134Z,8.20
2018-05-24T11:18:39.511Z,8.37
2018-05-24T11:21:07.525Z,8.50
2018-05-24T11:23:35.464Z,8.63
2018-05-24T11:26:04.738Z,9.27
2018-05-24T11:28:32.900Z,9.13
2018-05-24T11:31:01.611Z,9.53
2018-05-24T11:33:29.750Z,10.33
2018-05-24T11:35:57.823Z,10.23
2018-05-24T11:38:25.979Z,9.93
2018-05-24T11:41:00.858Z,10.17
2018-05-24T11:43:41.202Z,9.87
2018-05-24T11:46:08.981Z,10.83
2018-05-24T11:48:37.588Z,10.43
2018-05-24T11:51:05.373Z,10.77
2018-05-24T11:53:33.188Z,10.67
2018-05-24T11:56:00.998Z,9.57
2018-05-24T11:58:28.747Z,11.03
2018-05-24T12:00:56.620Z,10.67
2018-05-24T12:03:24.772Z,10.83
2018-05-24T12:05:52.706Z,11.47
2018-05-24T12:08:20.432Z,10.60
2018-05-24T12:10:58.805Z,12.07
2018-05-24T12:13:31.282Z,12.73
2018-05-24T12:16:03.616Z,12.00
2018-05-24T12:23:54.246Z,11.97
2018-05-24T12:26:22.249Z,12.63
2018-05-24T12:28:50.726Z,12.00
2018-05-24T12:31:18.789Z,11.37
2018-05-24T12:33:49.405Z,11.53
2018-05-24T12:36:18.298Z,11.73
2018-05-24T12:38:46.292Z,12.33
2018-05-24T12:41:14.057Z,11.47
2018-05-24T12:43:42.272Z,12.00
2018-05-24T12:46:10.791Z,11.43
2018-05-24T12:48:41.421Z,11.13
2018-05-24T12:51:09.481Z,11.77
2018-05-24T12:53:37.269Z,11.20
2018-05-24T12:56:06.343Z,10.20
2018-05-24T12:58:43.247Z,10.80
2018-05-24T13:01:10.932Z,11.03
2018-05-24T13:03:38.848Z,11.23
2018-05-24T13:06:06.737Z,12.33
2018-05-24T13:08:34.574Z,11.20
2018-05-24T13:11:02.575Z,11.37
2018-05-24T13:13:30.471Z,12.27
2018-05-24T13:15:58.355Z,11.97
2018-05-24T13:18:26.125Z,12.37
2018-05-24T13:20:54.086Z,12.33
2018-05-24T13:23:22.044Z,11.47
2018-05-24T13:25:50.160Z,13.73
2018-05-24T13:28:18.553Z,12.57
2018-05-24T13:30:46.293Z,12.77
2018-05-24T13:33:14.629Z,12.90
2018-05-24T13:35:42.697Z,12.90
2018-05-24T13:38:10.801Z,11.90
2018-05-24T13:40:38.622Z,13.47
2018-05-24T13:43:06.485Z,13.10
2018-05-24T13:45:34.996Z,12.33
2018-05-24T13:48:03.651Z,12.13
2018-05-24T13:50:31.846Z,12.43
2018-05-24T13:53:00.014Z,13.30
2018-05-24T13:55:28.144Z,14.30
2018-05-24T13:57:58.259Z,13.77
2018-05-24T14:00:31.671Z,14.07
2018-05-24T14:03:00.024Z,13.73
2018-05-24T14:05:31.384Z,14.03
2018-05-24T14:08:00.398Z,13.40
2018-05-24T14:10:28.697Z,13.20
2018-05-24T14:12:57.437Z,13.20
2018-05-24T14:15:25.642Z,13.30
2018-05-24T14:17:55.714Z,11.73
2018-05-24T14:20:24.158Z,10.67
2018-05-24T14:22:56.799Z,11.13
2018-05-24T14:25:24.723Z,11.20
2018-05-24T14:27:52.774Z,8.33
2018-05-24T14:30:22.804Z,9.30
2018-05-24T14:32:54.004Z,10.77
2018-05-24T14:35:22.149Z,9.63
2018-05-24T14:37:50.093Z,10.17
2018-05-24T14:40:18.180Z,10.17
2018-05-24T14:42:47.753Z,10.83
2018-05-24T14:45:17.110Z,10.30
2018-05-24T14:47:45.959Z,11.30
2018-05-24T14:50:14.677Z,10.03
2018-05-24T14:52:43.176Z,10.23
2018-05-24T14:55:12.536Z,10.43
2018-05-24T14:57:40.560Z,10.43
2018-05-24T15:00:10.121Z,9.90
2018-05-24T15:02:39.650Z,10.17
2018-05-24T15:05:07.759Z,10.30
2018-05-24T15:07:35.582Z,9.80
2018-05-24T15:10:03.373Z,10.03
2018-05-24T15:12:31.533Z,10.07
2018-05-24T15:15:01.722Z,10.30
2018-05-24T15:17:30.709Z,10.17
2018-05-24T15:20:00.434Z,9.73
2018-05-24T15:22:29.332Z,9.63
2018-05-24T15:24:57.693Z,8.87
2018-05-24T15:27:26.177Z,9.50
2018-05-24T15:29:54.081Z,9.37
2018-05-24T15:32:24.068Z,9.20
2018-05-24T15:34:51.831Z,9.90
2018-05-24T15:37:21.245Z,9.50
2018-05-24T15:39:49.815Z,9.07
2018-05-24T15:42:17.756Z,10.43
2018-05-24T15:44:45.784Z,9.50
2018-05-24T15:47:13.489Z,9.50
2018-05-24T15:49:41.223Z,9.47
2018-05-24T15:52:08.889Z,9.60
2018-05-24T15:54:36.788Z,9.40
2018-05-24T15:57:04.444Z,9.40
2018-05-24T15:59:32.199Z,9.20
2018-05-24T16:01:59.918Z,8.67
2018-05-24T16:04:27.614Z,8.63
2018-05-24T16:06:55.485Z,8.67
2018-05-24T16:09:23.162Z,8.73
2018-05-24T16:11:53.063Z,8.70
2018-05-24T16:14:25.653Z,9.80
2018-05-24T16:16:53.390Z,9.13
2018-05-24T16:19:21.294Z,9.77
2018-05-24T16:21:50.262Z,9.63
2018-05-24T16:24:18.250Z,10.03
2018-05-24T16:26:46.697Z,9.60
2018-05-24T16:29:14.479Z,10.00
2018-05-24T16:31:42.408Z,10.03
2018-05-24T16:34:10.298Z,11.50
2018-05-24T16:36:39.150Z,10.73
2018-05-24T16:39:07.877Z,11.70
2018-05-24T16:41:36.622Z,10.53
2018-05-24T16:44:04.430Z,10.10
2018-05-24T16:46:32.095Z,11.17
2018-05-24T16:48:59.889Z,10.33
2018-05-24T16:51:28.527Z,10.10
2018-05-24T16:53:56.355Z,11.40
2018-05-24T16:56:25.001Z,10.07
2018-05-24T16:58:52.713Z,10.07
2018-05-24T17:01:21.064Z,9.83
2018-05-24T17:03:48.620Z,9.93
2018-05-24T17:06:16.287Z,10.47
2018-05-24T17:08:44.330Z,10.23
2018-05-24T17:11:11.991Z,10.23
2018-05-24T17:13:39.668Z,9.50
2018-05-24T17:16:07.328Z,9.50
2018-05-24T17:18:35.426Z,9.53
2018-05-24T17:21:03.880Z,8.80
2018-05-24T17:23:32.039Z,8.80
2018-05-24T17:26:00.517Z,7.67
2018-05-24T17:28:29.222Z,7.33
2018-05-24T17:30:57.135Z,7.63
2018-05-24T17:33:28.900Z,7.20
2018-05-24T17:35:56.600Z,7.40
2018-05-24T17:38:24.240Z,7.27
2018-05-24T17:40:51.924Z,6.53
2018-05-24T17:43:19.534Z,7.60
2018-05-24T17:45:47.357Z,7.40
2018-05-24T17:48:15.257Z,7.10
2018-05-24T17:50:43.860Z,6.80
2018-05-24T17:53:11.751Z,6.50
2018-05-24T17:55:39.456Z,6.43
2018-05-24T17:58:07.923Z,6.33
2018-05-24T18:00:35.613Z,6.43
2018-05-24T18:03:03.271Z,6.33
2018-05-24T18:05:32.358Z,6.03
2018-05-24T18:08:03.008Z,6.30
2018-05-24T18:10:30.682Z,6.10
2018-05-24T18:12:58.415Z,5.97
2018-05-24T18:15:30.988Z,6.43
2018-05-24T18:18:00.103Z,6.13
2018-05-24T18:20:27.898Z,6.40
2018-05-24T18:22:55.511Z,5.97
2018-05-24T18:25:23.231Z,5.90
2018-05-24T18:27:51.075Z,5.80
2018-05-24T18:30:18.754Z,5.60
2018-05-24T18:32:47.422Z,6.37
2018-05-24T18:35:15.036Z,6.63
2018-05-24T18:37:43.707Z,5.80
2018-05-24T18:40:12.315Z,6.17
2018-05-24T18:42:42.163Z,7.27
2018-05-24T18:45:10.186Z,6.90
2018-05-24T18:47:38.395Z,6.53
2018-05-24T18:50:06.724Z,6.40
2018-05-24T18:52:34.801Z,6.20
2018-05-24T18:55:03.956Z,6.67
2018-05-24T18:57:31.955Z,6.50
2018-05-24T18:59:59.664Z,6.43
2018-05-24T19:02:30.591Z,6.10
2018-05-24T19:04:58.264Z,5.93
2018-05-24T19:07:26.829Z,6.23
2018-05-24T19:09:58.315Z,6.10
2018-05-24T19:12:32.998Z,6.40
2018-05-24T19:15:02.857Z,6.90
2018-05-24T19:17:31.352Z,6.70
2018-05-24T19:19:59.197Z,6.90
2018-05-24T19:22:26.834Z,6.60
2018-05-24T19:24:54.545Z,7.30
2018-05-24T19:27:22.227Z,6.43
2018-05-24T19:29:49.919Z,6.60
2018-05-24T19:32:18.254Z,6.80
2018-05-24T19:34:45.896Z,6.37
2018-05-24T19:37:14.353Z,6.43
2018-05-24T19:39:42.800Z,6.00
2018-05-24T19:42:11.443Z,6.27
2018-05-24T19:44:39.211Z,6.23
2018-05-24T19:47:06.932Z,6.13
2018-05-24T19:49:34.681Z,6.37
2018-05-24T19:52:03.389Z,6.30
2018-05-24T19:54:32.733Z,6.10
2018-05-24T19:57:00.898Z,5.97
2018-05-24T19:59:29.785Z,6.10
2018-05-24T20:02:01.732Z,5.60
2018-05-24T20:04:29.518Z,6.27
2018-05-24T20:06:57.197Z,5.93
2018-05-24T20:09:25.386Z,6.13
2018-05-24T20:12:00.774Z,5.60
2018-05-24T20:14:28.437Z,6.10
2018-05-24T20:16:56.114Z,6.50
2018-05-24T20:19:23.741Z,6.90
2018-05-24T20:21:51.454Z,6.10
2018-05-24T20:24:19.274Z,6.47
2018-05-24T20:26:48.594Z,6.90
2018-05-24T20:29:17.060Z,6.37
2018-05-24T20:31:46.971Z,6.23
2018-05-24T20:34:14.940Z,7.50
2018-05-24T20:36:43.989Z,7.20
2018-05-24T20:39:12.706Z,7.17
2018-05-24T20:41:42.298Z,7.13
2018-05-24T20:44:11.881Z,7.63
2018-05-24T20:46:42.515Z,7.20
2018-05-24T20:49:11.320Z,6.77
2018-05-24T20:51:38.975Z,7.80
2018-05-24T20:54:08.516Z,8.00
2018-05-24T20:56:37.157Z,7.63
2018-05-24T20:59:05.681Z,7.47
2018-05-24T21:01:33.345Z,7.73
2018-05-24T21:04:03.791Z,7.97
2018-05-24T21:06:32.989Z,8.30
2018-05-24T21:09:03.104Z,8.50
2018-05-24T21:11:34.988Z,8.03
2018-05-24T21:14:03.571Z,8.40
2018-05-24T21:16:37.569Z,9.13
2018-05-24T21:19:05.948Z,9.97
2018-05-24T21:21:34.116Z,10.37
2018-05-24T21:24:03.486Z,10.33
2018-05-24T21:26:33.588Z,10.63
2018-05-24T21:29:02.828Z,10.67
2018-05-24T21:31:33.714Z,11.17
2018-05-24T21:34:04.144Z,10.67
2018-05-24T21:36:34.842Z,10.70
2018-05-24T21:39:03.628Z,11.30
2018-05-24T21:41:34.066Z,11.90
2018-05-24T21:44:02.606Z,11.83
2018-05-24T21:46:30.516Z,13.50
2018-05-24T21:49:02.394Z,14.03
2018-05-24T21:51:30.564Z,12.73
2018-05-24T21:54:04.107Z,12.20
2018-05-24T21:56:34.588Z,12.33
2018-05-24T21:59:02.214Z,12.77
2018-05-24T22:01:29.974Z,12.80
2018-05-24T22:03:57.600Z,13.67
2018-05-24T22:06:25.535Z,12.83
2018-05-24T22:08:53.153Z,12.60
2018-05-24T22:11:24.439Z,14.90
2018-05-24T22:13:52.746Z,13.63
2018-05-24T22:16:21.456Z,14.10
2018-05-24T22:18:53.904Z,13.87
2018-05-24T22:21:21.584Z,14.33
2018-05-24T22:23:50.379Z,14.50
2018-05-24T22:26:20.509Z,13.23
2018-05-24T22:28:50.063Z,14.13
2018-05-24T22:31:19.376Z,14.43
2018-05-24T22:33:46.997Z,17.03
2018-05-24T22:36:14.675Z,19.37
2018-05-24T22:38:43.100Z,23.37
2018-05-24T22:41:15.497Z,23.13
2018-05-24T22:43:51.557Z,20.23
2018-05-24T22:46:21.101Z,17.90
2018-05-24T22:48:50.359Z,16.10
2018-05-24T22:51:19.154Z,15.30
2018-05-24T22:53:48.392Z,14.70
2018-05-24T22:56:16.679Z,15.57
2018-05-24T22:58:44.470Z,14.60
2018-05-24T23:01:12.514Z,16.93
2018-05-24T23:03:40.775Z,14.77
2018-05-24T23:06:09.980Z,15.33
2018-05-24T23:08:37.628Z,15.43
2018-05-24T23:11:05.424Z,14.73
2018-05-24T23:13:33.632Z,15.47
2018-05-24T23:16:03.060Z,15.40
2018-05-24T23:18:30.961Z,15.57
2018-05-24T23:20:59.246Z,15.80
2018-05-24T23:23:28.426Z,16.77
2018-05-24T23:25:56.243Z,15.83
2018-05-24T23:28:23.865Z,16.73
2018-05-24T23:30:51.690Z,15.47
2018-05-24T23:33:21.496Z,15.57
2018-05-24T23:35:49.521Z,16.03
2018-05-24T23:38:19.293Z,16.87
2018-05-24T23:40:47.816Z,16.77
2018-05-24T23:43:19.730Z,15.20
2018-05-24T23:45:48.001Z,17.57
2018-05-24T23:48:15.676Z,18.60
2018-05-24T23:50:43.317Z,18.50
2018-05-24T23:53:12.506Z,18.00
2018-05-24T23:55:40.666Z,18.13
2018-05-24T23:58:08.999Z,18.63
